Time;durP1;ratioP1;P1;durP2;ratioP2;P2;SDS_P1;SDS_P2;PMS_P1;PMS_P2;Temp;Humidity;BMP_temperature;BMP_pressure;BME280_temperature;BME280_humidity;BME280_pressure;Samples;Min_cycle;Max_cycle;Signal;HPM_P1;HPM_P2
2023/12/09 00:01:52;;;;;;;4.50;3.05;;;;;;;;;;1891076;76;21403;-59
2023/12/09 00:04:21;;;;;;;3.02;2.60;;;;;;;;;;1891084;75;21329;-60
2023/12/09 00:06:49;;;;;;;6.00;3.27;;;;;;;;;;1891209;76;21366;-60
2023/12/09 00:09:18;;;;;;;4.65;2.67;;;;;;;;;;1891106;75;21245;-60
2023/12/09 00:11:46;;;;;;;3.80;2.45;;;;;;;;;;1891095;76;21257;-60
2023/12/09 00:14:15;;;;;;;5.72;2.85;;;;;;;;;;1891148;76;21223;-59
2023/12/09 00:16:44;;;;;;;9.25;3.33;;;;;;;;;;1891294;76;21295;-60
2023/12/09 00:19:13;;;;;;;4.65;2.83;;;;;;;;;;1891130;76;21295;-60
2023/12/09 00:21:41;;;;;;;5.80;3.00;;;;;;;;;;1891271;76;21165;-60
2023/12/09 00:24:10;;;;;;;5.83;2.92;;;;;;;;;;1891239;76;21261;-59
2023/12/09 00:26:38;;;;;;;4.42;2.67;;;;;;;;;;1891245;76;21331;-59
2023/12/09 00:29:07;;;;;;;5.22;3.00;;;;;;;;;;1891378;76;21403;-60
2023/12/09 00:31:35;;;;;;;10.03;3.20;;;;;;;;;;1891310;75;21261;-59
2023/12/09 00:34:04;;;;;;;4.47;2.80;;;;;;;;;;1891328;76;21337;-60
2023/12/09 00:36:33;;;;;;;7.75;3.55;;;;;;;;;;1891319;76;21261;-60
2023/12/09 00:39:01;;;;;;;3.15;2.50;;;;;;;;;;1891296;74;21222;-60
2023/12/09 00:41:30;;;;;;;5.08;2.70;;;;;;;;;;1891210;76;21333;-60
2023/12/09 00:43:59;;;;;;;3.92;2.37;;;;;;;;;;1891316;75;21389;-59
2023/12/09 00:46:27;;;;;;;4.72;2.35;;;;;;;;;;1891290;75;21225;-59
2023/12/09 00:48:56;;;;;;;3.33;2.30;;;;;;;;;;1891393;76;21261;-59
2023/12/09 00:51:24;;;;;;;6.08;2.67;;;;;;;;;;1891295;75;21335;-59
2023/12/09 00:53:53;;;;;;;3.70;2.55;;;;;;;;;;1891180;76;21317;-59
2023/12/09 00:56:22;;;;;;;4.28;2.67;;;;;;;;;;1891388;76;21333;-60
2023/12/09 00:58:50;;;;;;;3.25;1.98;;;;;;;;;;1891194;75;21166;-59
2023/12/09 01:01:19;;;;;;;4.87;2.42;;;;;;;;;;1891399;76;21201;-59
2023/12/09 01:03:48;;;;;;;3.52;2.62;;;;;;;;;;1891185;76;21292;-60
2023/12/09 01:06:16;;;;;;;4.35;2.27;;;;;;;;;;1891325;76;21201;-59
2023/12/09 01:08:44;;;;;;;4.92;2.58;;;;;;;;;;1891273;76;21137;-59
2023/12/09 01:11:13;;;;;;;5.55;3.20;;;;;;;;;;1891287;76;21181;-59
2023/12/09 01:13:41;;;;;;;2.67;2.40;;;;;;;;;;1891209;76;21277;-59
2023/12/09 01:16:10;;;;;;;3.58;2.55;;;;;;;;;;1891392;76;21273;-59
2023/12/09 01:18:39;;;;;;;3.70;2.47;;;;;;;;;;1891271;76;21304;-59
2023/12/09 01:21:08;;;;;;;4.90;2.60;;;;;;;;;;1891263;76;21374;-60
2023/12/09 01:23:37;;;;;;;4.85;2.50;;;;;;;;;;1891336;76;21209;-59
2023/12/09 01:26:07;;;;;;;8.93;3.08;;;;;;;;;;1891254;75;21261;-59
2023/12/09 01:28:35;;;;;;;3.67;2.45;;;;;;;;;;1891352;76;21273;-59
2023/12/09 01:31:04;;;;;;;5.33;2.20;;;;;;;;;;1891267;75;21222;-59
2023/12/09 01:33:32;;;;;;;7.45;2.20;;;;;;;;;;1891233;75;21265;-59
2023/12/09 01:36:01;;;;;;;4.00;2.42;;;;;;;;;;1891313;76;21262;-59
2023/12/09 01:38:29;;;;;;;4.17;2.47;;;;;;;;;;1893369;75;21491;-60
2023/12/09 01:40:58;;;;;;;3.45;2.62;;;;;;;;;;1900831;75;21351;-59
2023/12/09 01:43:27;;;;;;;4.75;2.83;;;;;;;;;;1900812;75;21392;-59
2023/12/09 01:45:57;;;;;;;4.25;2.33;;;;;;;;;;1900930;75;21260;-59
2023/12/09 01:48:26;;;;;;;3.25;2.27;;;;;;;;;;1898941;75;21070;-59
2023/12/09 01:50:56;;;;;;;3.40;2.58;;;;;;;;;;1900868;75;21113;-60
2023/12/09 01:53:24;;;;;;;2.65;2.40;;;;;;;;;;1900865;75;21340;-60
2023/12/09 01:55:53;;;;;;;3.92;2.60;;;;;;;;;;1900918;75;21219;-60
2023/12/09 01:58:22;;;;;;;4.12;2.52;;;;;;;;;;1900912;75;21283;-60
2023/12/09 02:00:50;;;;;;;4.55;2.15;;;;;;;;;;1900900;75;21218;-59
2023/12/09 02:03:19;;;;;;;3.33;2.62;;;;;;;;;;1900912;75;21261;-60
2023/12/09 02:05:47;;;;;;;2.87;2.40;;;;;;;;;;1900771;75;21249;-59
2023/12/09 02:08:16;;;;;;;3.25;2.17;;;;;;;;;;1900754;75;21287;-59
2023/12/09 02:10:46;;;;;;;4.95;2.42;;;;;;;;;;1900787;75;21341;-59
2023/12/09 02:13:25;;;;;;;3.60;2.75;;;;;;;;;;1900750;75;21344;-59
2023/12/09 02:15:55;;;;;;;3.45;2.42;;;;;;;;;;1900901;75;21379;-59
2023/12/09 02:18:25;;;;;;;4.80;3.25;;;;;;;;;;1900355;75;21451;-59
2023/12/09 02:20:53;;;;;;;4.72;2.40;;;;;;;;;;1901015;75;21269;-59
2023/12/09 02:23:21;;;;;;;7.87;3.47;;;;;;;;;;1900729;75;21408;-60
2023/12/09 02:25:51;;;;;;;8.48;3.02;;;;;;;;;;1900811;75;21261;-59
2023/12/09 02:28:24;;;;;;;4.55;2.60;;;;;;;;;;1900771;75;21201;-60
2023/12/09 02:30:54;;;;;;;5.95;2.80;;;;;;;;;;1899664;75;21353;-59
2023/12/09 02:33:23;;;;;;;4.30;2.67;;;;;;;;;;1900694;75;21261;-59
2023/12/09 02:35:53;;;;;;;6.35;3.00;;;;;;;;;;1900824;75;21273;-59
2023/12/09 02:38:22;;;;;;;7.37;2.67;;;;;;;;;;1900752;75;21329;-59
2023/12/09 02:40:51;;;;;;;3.83;3.08;;;;;;;;;;1863960;77;21286;-60
2023/12/09 02:43:20;;;;;;;4.28;2.85;;;;;;;;;;1863825;77;21297;-60
2023/12/09 02:45:49;;;;;;;5.00;2.40;;;;;;;;;;1863917;76;21296;-60
2023/12/09 02:48:17;;;;;;;3.92;2.95;;;;;;;;;;1863948;77;21240;-60
2023/12/09 02:50:46;;;;;;;5.12;3.17;;;;;;;;;;1863884;77;21306;-59
2023/12/09 02:53:14;;;;;;;4.62;2.92;;;;;;;;;;1863881;77;21340;-60
2023/12/09 02:55:43;;;;;;;5.42;2.87;;;;;;;;;;1863967;77;21255;-59
2023/12/09 02:58:12;;;;;;;5.05;3.27;;;;;;;;;;1863934;77;21244;-60
2023/12/09 03:00:41;;;;;;;5.03;2.65;;;;;;;;;;1863970;77;21354;-60
2023/12/09 03:03:09;;;;;;;4.12;2.55;;;;;;;;;;1863979;77;21411;-60
2023/12/09 03:05:38;;;;;;;2.52;1.90;;;;;;;;;;1863965;77;21367;-60
2023/12/09 03:08:06;;;;;;;3.50;2.45;;;;;;;;;;1863949;77;21208;-59
2023/12/09 03:10:35;;;;;;;7.70;2.92;;;;;;;;;;1864031;77;21175;-59
2023/12/09 03:13:03;;;;;;;5.87;2.75;;;;;;;;;;1863923;76;21645;-59
2023/12/09 03:15:32;;;;;;;4.78;2.65;;;;;;;;;;1863967;75;21232;-59
2023/12/09 03:18:00;;;;;;;5.80;2.67;;;;;;;;;;1863791;77;21371;-59
2023/12/09 03:20:29;;;;;;;4.85;2.80;;;;;;;;;;1863904;77;21345;-59
2023/12/09 03:22:58;;;;;;;4.58;3.62;;;;;;;;;;1863754;77;21306;-60
2023/12/09 03:25:26;;;;;;;4.40;2.75;;;;;;;;;;1863930;77;21360;-59
2023/12/09 03:27:55;;;;;;;3.98;2.42;;;;;;;;;;1863872;77;21263;-59
2023/12/09 03:30:24;;;;;;;4.05;3.12;;;;;;;;;;1863838;77;21433;-59
2023/12/09 03:32:52;;;;;;;3.52;2.50;;;;;;;;;;1863981;77;21351;-59
2023/12/09 03:35:21;;;;;;;5.10;3.35;;;;;;;;;;1863820;77;21244;-59
2023/12/09 03:37:49;;;;;;;2.55;2.12;;;;;;;;;;1863840;77;21410;-59
2023/12/09 03:40:18;;;;;;;13.15;3.00;;;;;;;;;;1885084;75;21246;-59
2023/12/09 03:42:46;;;;;;;3.22;2.27;;;;;;;;;;1900743;75;21138;-59
2023/12/09 03:45:15;;;;;;;3.95;2.50;;;;;;;;;;1900760;75;21208;-59
2023/12/09 03:47:45;;;;;;;5.30;3.02;;;;;;;;;;1900652;75;21197;-59
2023/12/09 03:50:13;;;;;;;5.10;3.08;;;;;;;;;;1900882;75;21208;-59
2023/12/09 03:52:42;;;;;;;5.83;3.20;;;;;;;;;;1900748;75;21279;-59
2023/12/09 03:55:11;;;;;;;4.65;2.58;;;;;;;;;;1900755;75;21277;-59
2023/12/09 03:57:40;;;;;;;5.80;3.50;;;;;;;;;;1900773;75;21439;-59
2023/12/09 04:00:09;;;;;;;4.03;2.45;;;;;;;;;;1900722;75;21184;-59
2023/12/09 04:02:37;;;;;;;5.50;2.92;;;;;;;;;;1900921;75;21717;-59
2023/12/09 04:05:06;;;;;;;4.80;2.80;;;;;;;;;;1900925;75;21188;-59
2023/12/09 04:07:35;;;;;;;5.12;3.08;;;;;;;;;;1900945;75;21269;-60
2023/12/09 04:10:04;;;;;;;3.27;2.12;;;;;;;;;;1900889;75;21273;-59
2023/12/09 04:12:32;;;;;;;9.23;5.12;;;;;;;;;;1901046;75;21200;-59
2023/12/09 04:15:01;;;;;;;7.50;3.58;;;;;;;;;;1900728;75;21213;-60
2023/12/09 04:17:30;;;;;;;12.05;5.95;;;;;;;;;;1900851;75;21273;-59
2023/12/09 04:19:58;;;;;;;7.55;4.97;;;;;;;;;;1900803;75;21399;-59
2023/12/09 04:22:26;;;;;;;14.78;6.65;;;;;;;;;;1900825;75;21114;-59
2023/12/09 04:24:55;;;;;;;3.80;3.05;;;;;;;;;;1900825;75;21156;-59
2023/12/09 04:27:24;;;;;;;4.78;2.65;;;;;;;;;;1900803;75;21335;-59
2023/12/09 04:29:52;;;;;;;6.20;3.12;;;;;;;;;;1900800;75;21209;-59
2023/12/09 04:32:21;;;;;;;7.08;3.62;;;;;;;;;;1900779;75;21306;-60
2023/12/09 04:34:50;;;;;;;10.95;3.52;;;;;;;;;;1900711;75;21406;-59
2023/12/09 04:37:18;;;;;;;5.42;3.37;;;;;;;;;;1900881;75;21276;-59
2023/12/09 04:39:46;;;;;;;4.35;2.22;;;;;;;;;;1900682;75;21405;-59
2023/12/09 04:42:15;;;;;;;4.20;2.77;;;;;;;;;;1900940;75;21493;-59
2023/12/09 04:44:43;;;;;;;6.75;3.10;;;;;;;;;;1900916;75;21663;-59
2023/12/09 04:47:12;;;;;;;5.15;2.98;;;;;;;;;;1900888;75;21280;-59
2023/12/09 04:49:41;;;;;;;11.30;3.92;;;;;;;;;;1900847;75;21419;-59
2023/12/09 04:52:09;;;;;;;4.85;2.95;;;;;;;;;;1900746;75;21320;-59
2023/12/09 04:54:38;;;;;;;5.25;3.33;;;;;;;;;;1900755;74;21300;-59
2023/12/09 04:57:07;;;;;;;4.08;2.80;;;;;;;;;;1900812;75;21344;-60
2023/12/09 04:59:36;;;;;;;7.12;3.72;;;;;;;;;;1900759;75;21368;-59
2023/12/09 05:02:04;;;;;;;4.75;2.58;;;;;;;;;;1900770;75;21420;-59
2023/12/09 05:04:33;;;;;;;6.03;3.27;;;;;;;;;;1900914;75;21292;-60
2023/12/09 05:07:03;;;;;;;4.62;2.77;;;;;;;;;;1900713;75;21396;-60
2023/12/09 05:09:31;;;;;;;7.28;4.12;;;;;;;;;;1900728;75;21240;-59
2023/12/09 05:12:01;;;;;;;4.12;2.65;;;;;;;;;;1900654;75;21470;-59
2023/12/09 05:14:29;;;;;;;5.30;3.20;;;;;;;;;;1900688;75;21373;-59
2023/12/09 05:16:58;;;;;;;11.10;3.20;;;;;;;;;;1900714;75;21317;-59
2023/12/09 05:19:26;;;;;;;4.12;2.83;;;;;;;;;;1900689;75;21379;-59
2023/12/09 05:21:55;;;;;;;5.58;3.55;;;;;;;;;;1900638;75;21317;-60
2023/12/09 05:24:24;;;;;;;4.58;2.83;;;;;;;;;;1900573;75;21367;-59
2023/12/09 05:26:52;;;;;;;5.47;2.65;;;;;;;;;;1900696;75;21299;-59
2023/12/09 05:29:21;;;;;;;6.20;3.27;;;;;;;;;;1900590;75;21240;-59
2023/12/09 05:31:49;;;;;;;11.33;6.25;;;;;;;;;;1900666;75;21188;-59
2023/12/09 05:34:18;;;;;;;14.70;6.75;;;;;;;;;;1900640;75;21395;-59
2023/12/09 05:36:47;;;;;;;18.23;10.30;;;;;;;;;;1900725;75;21362;-59
2023/12/09 05:39:15;;;;;;;12.13;6.15;;;;;;;;;;1900701;75;21339;-59
2023/12/09 05:41:44;;;;;;;7.00;4.30;;;;;;;;;;1900712;75;21232;-59
2023/12/09 05:44:12;;;;;;;4.58;3.47;;;;;;;;;;1900848;75;21407;-59
2023/12/09 05:46:41;;;;;;;6.08;3.77;;;;;;;;;;1900713;75;21402;-59
2023/12/09 05:49:10;;;;;;;6.85;3.17;;;;;;;;;;1900730;75;21300;-59
2023/12/09 05:51:38;;;;;;;6.03;2.92;;;;;;;;;;1900768;74;21287;-59
2023/12/09 05:54:07;;;;;;;9.13;3.35;;;;;;;;;;1900754;75;21216;-59
2023/12/09 05:56:35;;;;;;;6.80;3.20;;;;;;;;;;1900880;75;21312;-59
2023/12/09 05:59:04;;;;;;;4.58;2.92;;;;;;;;;;1900838;75;21334;-59
2023/12/09 06:01:33;;;;;;;6.47;3.22;;;;;;;;;;1900670;75;21212;-59
2023/12/09 06:04:02;;;;;;;6.08;3.92;;;;;;;;;;1900743;75;21303;-59
2023/12/09 06:06:30;;;;;;;6.28;3.00;;;;;;;;;;1900783;75;21376;-59
2023/12/09 06:08:59;;;;;;;4.37;2.98;;;;;;;;;;1900809;75;21244;-59
2023/12/09 06:11:28;;;;;;;4.40;2.87;;;;;;;;;;1900791;75;21157;-59
2023/12/09 06:13:56;;;;;;;9.70;3.30;;;;;;;;;;1900841;75;21201;-59
2023/12/09 06:16:25;;;;;;;5.33;3.30;;;;;;;;;;1900765;75;21255;-59
2023/12/09 06:18:53;;;;;;;3.17;2.27;;;;;;;;;;1900732;75;21313;-60
2023/12/09 06:21:26;;;;;;;7.92;2.12;;;;;;;;;;1900721;75;21257;-60
2023/12/09 06:23:54;;;;;;;5.97;2.95;;;;;;;;;;1900748;75;21097;-60
2023/12/09 06:26:23;;;;;;;4.53;2.70;;;;;;;;;;1900859;75;21137;-59
2023/12/09 06:28:51;;;;;;;2.95;2.00;;;;;;;;;;1900785;75;21163;-59
2023/12/09 06:31:20;;;;;;;3.30;2.33;;;;;;;;;;1900737;75;21287;-59
2023/12/09 06:33:48;;;;;;;5.75;3.17;;;;;;;;;;1900872;75;21200;-59
2023/12/09 06:36:17;;;;;;;5.00;3.15;;;;;;;;;;1900806;75;21215;-59
2023/12/09 06:38:45;;;;;;;4.33;2.77;;;;;;;;;;1900873;74;21030;-59
2023/12/09 06:41:14;;;;;;;4.03;2.45;;;;;;;;;;1897760;75;21349;-59
2023/12/09 06:43:43;;;;;;;5.22;2.67;;;;;;;;;;1890990;75;21388;-59
2023/12/09 06:46:12;;;;;;;5.10;3.25;;;;;;;;;;1891205;76;21161;-59
2023/12/09 06:48:40;;;;;;;3.77;2.42;;;;;;;;;;1891172;76;21193;-59
2023/12/09 06:51:15;;;;;;;4.50;2.50;;;;;;;;;;1891113;76;21197;-59
2023/12/09 06:53:43;;;;;;;;;;;;;;;;;;1894038;76;21200;-59
2023/12/09 06:56:21;;;;;;;8.95;4.05;;;;;;;;;;1891305;76;20900;-59
2023/12/09 06:58:51;;;;;;;4.47;2.65;;;;;;;;;;1891326;76;21220;-59
2023/12/09 07:01:23;;;;;;;5.92;3.35;;;;;;;;;;1891163;76;21276;-59
2023/12/09 07:03:52;;;;;;;8.05;3.17;;;;;;;;;;1891007;76;21138;-59
2023/12/09 07:06:24;;;;;;;7.95;3.60;;;;;;;;;;1891097;75;21189;-59
2023/12/09 07:08:57;;;;;;;5.03;3.02;;;;;;;;;;1891035;76;21249;-59
2023/12/09 07:11:26;;;;;;;5.90;2.52;;;;;;;;;;1891214;76;21217;-59
2023/12/09 07:13:56;;;;;;;5.55;3.10;;;;;;;;;;1891095;75;21106;-59
2023/12/09 07:16:29;;;;;;;3.83;2.67;;;;;;;;;;1865177;73;21266;-59
2023/12/09 07:19:01;;;;;;;5.85;2.95;;;;;;;;;;1861449;77;21444;-59
2023/12/09 07:21:30;;;;;;;5.20;2.70;;;;;;;;;;1861374;77;21348;-59
2023/12/09 07:23:58;;;;;;;3.10;1.87;;;;;;;;;;1861370;75;21093;-59
2023/12/09 07:26:27;;;;;;;5.33;3.45;;;;;;;;;;1861382;75;21336;-59
2023/12/09 07:28:56;;;;;;;6.12;3.12;;;;;;;;;;1861457;77;21134;-59
2023/12/09 07:31:25;;;;;;;4.83;3.35;;;;;;;;;;1861453;76;21229;-59
2023/12/09 07:33:53;;;;;;;8.13;3.25;;;;;;;;;;1861421;77;21209;-59
2023/12/09 07:36:22;;;;;;;4.45;2.25;;;;;;;;;;1861549;77;21166;-59
2023/12/09 07:38:50;;;;;;;9.95;5.53;;;;;;;;;;1861547;77;21090;-59
2023/12/09 07:41:19;;;;;;;5.50;2.83;;;;;;;;;;1861418;77;21292;-59
2023/12/09 07:43:48;;;;;;;10.63;3.92;;;;;;;;;;1861398;75;21162;-59
2023/12/09 07:46:17;;;;;;;5.40;3.45;;;;;;;;;;1861303;77;21299;-59
2023/12/09 07:48:46;;;;;;;4.85;2.47;;;;;;;;;;1861327;77;21101;-59
2023/12/09 07:51:14;;;;;;;3.80;2.80;;;;;;;;;;1861309;77;21229;-59
2023/12/09 07:53:43;;;;;;;4.80;2.10;;;;;;;;;;1860844;75;21266;-59
2023/12/09 07:56:12;;;;;;;6.72;3.10;;;;;;;;;;1861381;77;21222;-59
2023/12/09 07:58:41;;;;;;;5.20;2.70;;;;;;;;;;1861282;75;21130;-59
2023/12/09 08:01:09;;;;;;;5.60;3.15;;;;;;;;;;1861407;77;21236;-59
2023/12/09 08:03:38;;;;;;;5.90;3.72;;;;;;;;;;1861450;77;21228;-59
2023/12/09 08:06:07;;;;;;;9.53;4.47;;;;;;;;;;1861477;77;21083;-59
2023/12/09 08:08:36;;;;;;;6.30;4.17;;;;;;;;;;1861366;77;21175;-59
2023/12/09 08:11:05;;;;;;;6.47;3.08;;;;;;;;;;1861424;77;21213;-61
2023/12/09 08:13:34;;;;;;;5.83;3.20;;;;;;;;;;1861364;77;21094;-60
2023/12/09 08:16:02;;;;;;;3.40;2.00;;;;;;;;;;1855799;76;21411;-60
2023/12/09 08:18:32;;;;;;;6.60;3.58;;;;;;;;;;1849239;77;21288;-59
2023/12/09 08:21:01;;;;;;;4.75;2.58;;;;;;;;;;1846709;77;21547;-58
2023/12/09 08:23:30;;;;;;;4.03;2.90;;;;;;;;;;1846997;78;21151;-60
2023/12/09 08:25:59;;;;;;;7.37;2.85;;;;;;;;;;1847889;78;21058;-58
2023/12/09 08:28:27;;;;;;;5.58;2.67;;;;;;;;;;1847619;78;21181;-62
2023/12/09 08:30:56;;;;;;;5.05;2.72;;;;;;;;;;1847475;78;21438;-59
2023/12/09 08:33:24;;;;;;;4.60;2.70;;;;;;;;;;1847717;78;21113;-59
2023/12/09 08:35:53;;;;;;;7.33;3.30;;;;;;;;;;1847560;78;21218;-59
2023/12/09 08:38:22;;;;;;;11.18;7.05;;;;;;;;;;1847390;78;21115;-59
2023/12/09 08:40:50;;;;;;;2.08;1.80;;;;;;;;;;1847744;78;21046;-61
2023/12/09 08:43:19;;;;;;;6.00;3.62;;;;;;;;;;1847741;78;21124;-60
2023/12/09 08:45:48;;;;;;;7.67;3.70;;;;;;;;;;1847583;78;21216;-63
2023/12/09 08:48:16;;;;;;;4.85;2.77;;;;;;;;;;1847802;78;21155;-62
2023/12/09 08:50:46;;;;;;;9.50;3.77;;;;;;;;;;1847834;78;21175;-62
2023/12/09 08:53:15;;;;;;;7.58;3.80;;;;;;;;;;1847464;78;21138;-63
2023/12/09 08:55:44;;;;;;;5.47;3.02;;;;;;;;;;1847633;78;21294;-62
2023/12/09 08:58:12;;;;;;;7.08;3.45;;;;;;;;;;1847474;78;21108;-62
2023/12/09 09:00:41;;;;;;;4.78;2.60;;;;;;;;;;1847555;78;21105;-62
2023/12/09 09:03:10;;;;;;;6.17;3.12;;;;;;;;;;1847729;78;21174;-63
2023/12/09 09:05:38;;;;;;;5.60;3.02;;;;;;;;;;1847683;78;21156;-60
2023/12/09 09:08:07;;;;;;;5.83;3.67;;;;;;;;;;1847575;78;21284;-60
2023/12/09 09:10:36;;;;;;;4.60;3.60;;;;;;;;;;1847759;78;21108;-58
2023/12/09 09:13:04;;;;;;;4.15;2.70;;;;;;;;;;1847737;78;21058;-58
2023/12/09 09:15:33;;;;;;;2.45;2.10;;;;;;;;;;1847556;78;21128;-58
2023/12/09 09:18:02;;;;;;;7.33;3.87;;;;;;;;;;1847441;77;21511;-61
2023/12/09 09:20:30;;;;;;;5.12;2.58;;;;;;;;;;1847617;78;21159;-63
2023/12/09 09:22:59;;;;;;;7.42;3.72;;;;;;;;;;1847481;78;21295;-64
2023/12/09 09:25:28;;;;;;;3.85;2.25;;;;;;;;;;1847576;78;21248;-64
2023/12/09 09:27:56;;;;;;;6.05;2.70;;;;;;;;;;1847672;78;21156;-63
2023/12/09 09:30:25;;;;;;;5.92;2.98;;;;;;;;;;1847598;78;21316;-62
2023/12/09 09:32:54;;;;;;;5.90;2.83;;;;;;;;;;1847678;78;21034;-62
2023/12/09 09:35:24;;;;;;;3.95;2.47;;;;;;;;;;1847626;78;21147;-63
2023/12/09 09:37:52;;;;;;;5.45;2.87;;;;;;;;;;1847415;78;21509;-60
2023/12/09 09:40:21;;;;;;;4.92;2.70;;;;;;;;;;1847665;78;21103;-62
2023/12/09 09:43:00;;;;;;;3.98;2.70;;;;;;;;;;1847574;78;21120;-61
2023/12/09 09:45:28;;;;;;;10.32;3.20;;;;;;;;;;1846098;78;21108;-61
2023/12/09 09:47:57;;;;;;;4.08;2.95;;;;;;;;;;1847567;78;21278;-61
2023/12/09 09:50:27;;;;;;;4.05;2.83;;;;;;;;;;1847654;78;21074;-59
2023/12/09 09:52:56;;;;;;;6.75;3.77;;;;;;;;;;1847668;78;21372;-59
2023/12/09 09:55:27;;;;;;;4.15;2.62;;;;;;;;;;1847748;78;21102;-58
2023/12/09 09:57:56;;;;;;;4.83;2.35;;;;;;;;;;1847595;78;21559;-61
2023/12/09 10:00:28;;;;;;;3.77;2.40;;;;;;;;;;1847606;78;21034;-60
2023/12/09 10:02:55;;;;;;;5.50;2.40;;;;;;;;;;1847439;78;21113;-61
2023/12/09 10:05:23;;;;;;;5.47;3.10;;;;;;;;;;1847791;78;21078;-61
2023/12/09 10:07:54;;;;;;;2.62;1.85;;;;;;;;;;1847573;78;21120;-60
2023/12/09 10:10:22;;;;;;;4.70;2.60;;;;;;;;;;1847642;78;21174;-60
2023/12/09 10:12:51;;;;;;;5.35;1.77;;;;;;;;;;1847620;78;21059;-61
2023/12/09 10:15:20;;;;;;;3.05;1.60;;;;;;;;;;1848272;78;21030;-61
2023/12/09 10:17:50;;;;;;;3.22;2.60;;;;;;;;;;1839487;77;21133;-61
2023/12/09 10:20:18;;;;;;;5.28;2.85;;;;;;;;;;1835973;78;21097;-61
2023/12/09 10:22:47;;;;;;;9.00;4.70;;;;;;;;;;1835846;78;21186;-61
2023/12/09 10:25:17;;;;;;;6.37;3.35;;;;;;;;;;1836011;78;21213;-61
2023/12/09 10:27:46;;;;;;;5.90;3.60;;;;;;;;;;1833427;78;21547;-61
2023/12/09 10:30:14;;;;;;;5.55;3.20;;;;;;;;;;1836017;78;21243;-61
2023/12/09 10:32:43;;;;;;;6.35;3.30;;;;;;;;;;1836069;78;21031;-61
2023/12/09 10:35:12;;;;;;;6.00;3.30;;;;;;;;;;1835972;78;21031;-62
2023/12/09 10:37:41;;;;;;;6.62;4.03;;;;;;;;;;1836025;78;21039;-62
2023/12/09 10:40:11;;;;;;;5.37;3.55;;;;;;;;;;1836048;78;21277;-62
2023/12/09 10:42:40;;;;;;;147.70;132.85;;;;;;;;;;1835924;78;21355;-62
2023/12/09 10:45:09;;;;;;;8.13;4.95;;;;;;;;;;1835952;78;21150;-62
2023/12/09 10:47:38;;;;;;;7.40;4.08;;;;;;;;;;1835957;78;21124;-62
2023/12/09 10:50:07;;;;;;;5.33;3.55;;;;;;;;;;1835867;78;21297;-62
2023/12/09 10:52:37;;;;;;;6.03;3.80;;;;;;;;;;1835917;78;21217;-62
2023/12/09 10:55:06;;;;;;;9.60;3.47;;;;;;;;;;1835917;78;21177;-62
2023/12/09 10:57:34;;;;;;;5.05;3.65;;;;;;;;;;1836000;78;21355;-62
2023/12/09 11:00:10;;;;;;;7.62;4.15;;;;;;;;;;1835937;78;21128;-62
2023/12/09 11:02:33;;;;;;;6.80;4.08;;;;;;;;;;1835055;78;21718;-62
2023/12/09 11:05:02;;;;;;;5.10;3.33;;;;;;;;;;1835901;78;21116;-62
2023/12/09 11:07:31;;;;;;;7.67;4.20;;;;;;;;;;1835874;78;21199;-62
2023/12/09 11:10:00;;;;;;;12.75;5.33;;;;;;;;;;1835887;78;21230;-62
2023/12/09 11:12:29;;;;;;;11.75;5.22;;;;;;;;;;1835838;78;21446;-62
2023/12/09 11:14:58;;;;;;;6.92;3.98;;;;;;;;;;1835991;78;21282;-62
2023/12/09 11:17:37;;;;;;;8.03;4.80;;;;;;;;;;1844420;77;21272;-62
2023/12/09 11:20:09;;;;;;;15.32;7.75;;;;;;;;;;1859627;77;21161;-62
2023/12/09 11:22:38;;;;;;;10.38;4.47;;;;;;;;;;1859575;77;21394;-62
2023/12/09 11:25:08;;;;;;;6.58;3.92;;;;;;;;;;1859714;77;21338;-62
2023/12/09 11:27:40;;;;;;;7.17;4.45;;;;;;;;;;1856882;77;21370;-62
2023/12/09 11:30:10;;;;;;;5.90;2.58;;;;;;;;;;1859627;77;21141;-62
2023/12/09 11:32:39;;;;;;;8.63;4.72;;;;;;;;;;1855557;77;21193;-62
2023/12/09 11:35:08;;;;;;;6.28;3.30;;;;;;;;;;1859536;77;21169;-62
2023/12/09 11:37:37;;;;;;;7.95;3.62;;;;;;;;;;1859493;77;21377;-62
2023/12/09 11:40:06;;;;;;;7.25;4.08;;;;;;;;;;1859564;77;21299;-62
2023/12/09 11:42:36;;;;;;;11.10;4.28;;;;;;;;;;1859516;76;21202;-62
2023/12/09 11:45:05;;;;;;;6.62;2.55;;;;;;;;;;1859685;77;21242;-62
2023/12/09 11:47:34;;;;;;;5.25;2.72;;;;;;;;;;1859636;77;21353;-62
2023/12/09 11:50:03;;;;;;;8.45;3.98;;;;;;;;;;1859566;77;21238;-62
2023/12/09 11:52:32;;;;;;;7.95;3.98;;;;;;;;;;1859492;77;21359;-62
2023/12/09 11:55:01;;;;;;;3.08;2.60;;;;;;;;;;1859544;76;21275;-62
2023/12/09 11:57:30;;;;;;;9.40;3.45;;;;;;;;;;1859519;77;21292;-62
2023/12/09 11:59:58;;;;;;;10.13;3.42;;;;;;;;;;1859468;76;21357;-62
2023/12/09 12:02:27;;;;;;;5.78;2.83;;;;;;;;;;1859261;77;21351;-62
2023/12/09 12:04:55;;;;;;;6.45;3.12;;;;;;;;;;1859330;77;21320;-62
2023/12/09 12:07:24;;;;;;;6.83;3.62;;;;;;;;;;1859381;76;21344;-62
2023/12/09 12:09:53;;;;;;;7.60;4.60;;;;;;;;;;1859321;77;21214;-62
2023/12/09 12:12:22;;;;;;;4.20;2.72;;;;;;;;;;1859266;77;21232;-62
2023/12/09 12:14:51;;;;;;;8.30;3.50;;;;;;;;;;1859285;77;21214;-62
2023/12/09 12:17:19;;;;;;;5.08;3.05;;;;;;;;;;1856484;77;21354;-62
2023/12/09 12:19:48;;;;;;;5.35;3.42;;;;;;;;;;1835624;78;21265;-62
2023/12/09 12:22:18;;;;;;;7.95;3.52;;;;;;;;;;1835652;78;21283;-62
2023/12/09 12:24:47;;;;;;;5.80;3.35;;;;;;;;;;1835855;78;21747;-62
2023/12/09 12:27:16;;;;;;;6.80;4.20;;;;;;;;;;1835768;78;21301;-62
2023/12/09 12:29:45;;;;;;;6.00;3.72;;;;;;;;;;1835788;78;21314;-62
2023/12/09 12:32:14;;;;;;;5.50;2.65;;;;;;;;;;1835873;78;21288;-62
2023/12/09 12:34:46;;;;;;;4.28;3.05;;;;;;;;;;1835925;78;21170;-62
2023/12/09 12:37:15;;;;;;;5.60;3.80;;;;;;;;;;1835688;78;21432;-62
2023/12/09 12:39:44;;;;;;;8.45;6.15;;;;;;;;;;1835876;78;21357;-62
2023/12/09 12:42:12;;;;;;;9.70;7.60;;;;;;;;;;1835737;78;21260;-62
2023/12/09 12:44:44;;;;;;;11.90;7.62;;;;;;;;;;1835776;78;21235;-62
2023/12/09 12:47:13;;;;;;;11.78;8.25;;;;;;;;;;1835772;78;21280;-62
2023/12/09 12:49:41;;;;;;;9.50;6.40;;;;;;;;;;1835754;78;21411;-62
2023/12/09 12:52:10;;;;;;;10.18;6.45;;;;;;;;;;1835776;78;21333;-62
2023/12/09 12:54:39;;;;;;;11.15;8.00;;;;;;;;;;1835726;78;21281;-62
2023/12/09 12:57:08;;;;;;;10.55;8.20;;;;;;;;;;1835864;78;21289;-62
2023/12/09 12:59:36;;;;;;;12.98;8.70;;;;;;;;;;1835729;78;21401;-62
2023/12/09 13:02:05;;;;;;;10.65;7.95;;;;;;;;;;1835881;78;21300;-62
2023/12/09 13:04:34;;;;;;;9.58;6.33;;;;;;;;;;1835728;78;21284;-62
2023/12/09 13:07:03;;;;;;;15.35;9.80;;;;;;;;;;1835813;78;21419;-62
2023/12/09 13:09:32;;;;;;;13.00;8.20;;;;;;;;;;1835841;78;21366;-62
2023/12/09 13:12:00;;;;;;;15.32;9.13;;;;;;;;;;1835744;78;21280;-62
2023/12/09 13:14:29;;;;;;;13.58;8.08;;;;;;;;;;1835763;78;21419;-62
2023/12/09 13:16:58;;;;;;;12.93;7.83;;;;;;;;;;1835707;78;21177;-62
2023/12/09 13:19:27;;;;;;;10.13;6.33;;;;;;;;;;1854051;77;21286;-62
2023/12/09 13:21:56;;;;;;;11.88;6.50;;;;;;;;;;1859328;77;21349;-62
2023/12/09 13:24:25;;;;;;;12.68;7.83;;;;;;;;;;1859536;77;21382;-62
2023/12/09 13:26:53;;;;;;;10.48;6.80;;;;;;;;;;1859562;77;21218;-62
2023/12/09 13:29:22;;;;;;;13.53;8.00;;;;;;;;;;1859550;77;21418;-62
2023/12/09 13:31:51;;;;;;;10.03;6.87;;;;;;;;;;1859436;77;21198;-62
2023/12/09 13:34:19;;;;;;;11.57;7.17;;;;;;;;;;1859510;77;21194;-62
2023/12/09 13:36:48;;;;;;;13.53;6.30;;;;;;;;;;1859481;77;21350;-62
2023/12/09 13:39:17;;;;;;;6.80;5.05;;;;;;;;;;1859450;77;21335;-62
2023/12/09 13:41:46;;;;;;;8.63;4.75;;;;;;;;;;1859439;77;21435;-62
2023/12/09 13:44:14;;;;;;;9.43;5.15;;;;;;;;;;1859379;77;21344;-62
2023/12/09 13:46:44;;;;;;;8.10;4.72;;;;;;;;;;1859375;77;21242;-62
2023/12/09 13:49:12;;;;;;;7.58;4.87;;;;;;;;;;1859506;77;21283;-62
2023/12/09 13:51:41;;;;;;;6.30;4.95;;;;;;;;;;1859362;77;21231;-62
2023/12/09 13:54:10;;;;;;;13.90;7.70;;;;;;;;;;1859456;77;21234;-62
2023/12/09 13:56:39;;;;;;;14.83;8.05;;;;;;;;;;1859278;77;21239;-62
2023/12/09 13:59:08;;;;;;;9.13;5.62;;;;;;;;;;1859300;77;21470;-62
2023/12/09 14:01:36;;;;;;;10.88;6.00;;;;;;;;;;1859405;77;21308;-62
2023/12/09 14:04:05;;;;;;;11.20;6.80;;;;;;;;;;1859393;77;21279;-62
2023/12/09 14:06:34;;;;;;;10.55;7.35;;;;;;;;;;1859441;77;21156;-62
2023/12/09 14:09:03;;;;;;;8.55;6.58;;;;;;;;;;1859405;77;21283;-62
2023/12/09 14:11:31;;;;;;;5.80;4.28;;;;;;;;;;1859411;77;21233;-62
2023/12/09 14:14:00;;;;;;;7.42;4.87;;;;;;;;;;1859432;77;21353;-62
2023/12/09 14:16:28;;;;;;;5.70;4.47;;;;;;;;;;1859478;77;21348;-62
2023/12/09 14:18:57;;;;;;;6.65;3.33;;;;;;;;;;1855484;77;21416;-62
2023/12/09 14:21:25;;;;;;;4.60;3.65;;;;;;;;;;1848056;78;21222;-62
2023/12/09 14:23:54;;;;;;;5.10;3.00;;;;;;;;;;1848068;78;21382;-62
2023/12/09 14:26:24;;;;;;;14.38;10.50;;;;;;;;;;1848189;78;21280;-62
2023/12/09 14:28:54;;;;;;;5.00;3.52;;;;;;;;;;1848097;78;21411;-62
2023/12/09 14:31:22;;;;;;;7.67;3.60;;;;;;;;;;1848118;78;21337;-62
2023/12/09 14:33:51;;;;;;;5.55;3.85;;;;;;;;;;1848217;78;21288;-62
2023/12/09 14:36:20;;;;;;;6.80;4.00;;;;;;;;;;1848116;78;21169;-62
2023/12/09 14:38:48;;;;;;;8.23;4.80;;;;;;;;;;1848041;78;21441;-62
2023/12/09 14:41:17;;;;;;;12.53;6.37;;;;;;;;;;1848148;78;21401;-62
2023/12/09 14:43:47;;;;;;;8.25;6.05;;;;;;;;;;1848082;78;21343;-62
2023/12/09 14:46:16;;;;;;;9.55;4.85;;;;;;;;;;1848103;78;21865;-61
2023/12/09 14:48:44;;;;;;;5.35;4.00;;;;;;;;;;1848174;78;21162;-61
2023/12/09 14:51:13;;;;;;;6.28;4.15;;;;;;;;;;1848040;78;21283;-62